Time;durP1;ratioP1;P1;durP2;ratioP2;P2;SDS_P1;SDS_P2;PMS_P1;PMS_P2;Temp;Humidity;BMP_temperature;BMP_pressure;BME280_temperature;BME280_humidity;BME280_pressure;Samples;Min_cycle;Max_cycle;Signal;HPM_P1;HPM_P2
2021/10/13 00:01:49;;;;;;;885.75;564.50;;;;;;;;;;5037969;28;20028;-74
2021/10/13 00:04:15;;;;;;;892.03;574.63;;;;;;;;;;5053824;28;20036;-74
2021/10/13 00:06:41;;;;;;;881.97;548.38;;;;;;;;;;5051287;28;20063;-73
2021/10/13 00:09:07;;;;;;;883.78;549.65;;;;;;;;;;5033689;28;20132;-74
2021/10/13 00:11:34;;;;;;;889.78;572.63;;;;;;;;;;5041704;28;20205;-74
2021/10/13 00:14:00;;;;;;;885.50;562.35;;;;;;;;;;5068553;28;20049;-74
2021/10/13 00:16:26;;;;;;;894.78;593.58;;;;;;;;;;5052967;28;20461;-73
2021/10/13 00:18:52;;;;;;;885.60;562.25;;;;;;;;;;5051250;28;20574;-74
2021/10/13 00:21:18;;;;;;;886.88;566.40;;;;;;;;;;5060080;28;20064;-73
2021/10/13 00:23:44;;;;;;;885.90;564.10;;;;;;;;;;5063382;28;20036;-74
2021/10/13 00:26:10;;;;;;;890.58;573.15;;;;;;;;;;5052921;28;20040;-74
2021/10/13 00:28:36;;;;;;;892.67;586.92;;;;;;;;;;5059868;28;20404;-73
2021/10/13 00:31:02;;;;;;;887.40;560.65;;;;;;;;;;5034823;28;20028;-74
2021/10/13 00:33:28;;;;;;;881.65;545.55;;;;;;;;;;5055514;28;20021;-74
2021/10/13 00:35:54;;;;;;;887.70;570.22;;;;;;;;;;5035051;28;20021;-73
2021/10/13 00:38:20;;;;;;;895.60;592.63;;;;;;;;;;5056816;28;20024;-74
2021/10/13 00:40:46;;;;;;;889.60;572.95;;;;;;;;;;5062616;28;20028;-73
2021/10/13 00:43:12;;;;;;;887.50;558.25;;;;;;;;;;5046762;28;20116;-74
2021/10/13 00:45:38;;;;;;;879.33;535.95;;;;;;;;;;5051259;28;20123;-74
2021/10/13 00:48:04;;;;;;;878.95;529.50;;;;;;;;;;5034149;28;20033;-74
2021/10/13 00:50:30;;;;;;;883.78;545.92;;;;;;;;;;5055949;28;20103;-74
2021/10/13 00:52:56;;;;;;;881.17;534.63;;;;;;;;;;5039160;28;20128;-73
2021/10/13 00:55:22;;;;;;;889.00;558.83;;;;;;;;;;5050452;28;20514;-74
2021/10/13 00:57:50;;;;;;;880.10;530.78;;;;;;;;;;5052309;28;20017;-73
2021/10/13 01:00:16;;;;;;;879.25;530.85;;;;;;;;;;5060955;28;20028;-73
2021/10/13 01:02:48;;;;;;;883.88;543.30;;;;;;;;;;5053627;28;20496;-73
2021/10/13 01:05:23;;;;;;;881.60;532.13;;;;;;;;;;5042076;28;20433;-73
2021/10/13 01:07:52;;;;;;;884.60;530.22;;;;;;;;;;5055588;28;20029;-73
2021/10/13 01:10:21;;;;;;;888.75;550.72;;;;;;;;;;5065849;28;20085;-74
2021/10/13 01:13:06;;;;;;;886.50;541.13;;;;;;;;;;5036493;28;20051;-73
2021/10/13 01:15:46;;;;;;;889.35;542.30;;;;;;;;;;5052651;28;20119;-73
2021/10/13 01:18:15;;;;;;;882.20;513.55;;;;;;;;;;5057959;28;20044;-73
2021/10/13 01:20:48;;;;;;;890.03;543.08;;;;;;;;;;5057058;28;20017;-73
2021/10/13 01:23:29;;;;;;;880.30;507.40;;;;;;;;;;5059587;28;20029;-74
2021/10/13 01:26:14;;;;;;;889.00;534.42;;;;;;;;;;5051449;28;20083;-74
2021/10/13 01:28:42;;;;;;;881.85;512.70;;;;;;;;;;5039199;28;20039;-74
2021/10/13 01:31:17;;;;;;;889.67;521.38;;;;;;;;;;5040383;28;20082;-74
2021/10/13 01:33:45;;;;;;;889.42;527.58;;;;;;;;;;5032557;28;20029;-73
2021/10/13 01:36:13;;;;;;;884.10;519.13;;;;;;;;;;5034458;28;20033;-74
2021/10/13 01:38:41;;;;;;;886.88;521.88;;;;;;;;;;5062951;28;20044;-73
2021/10/13 01:41:08;;;;;;;881.38;513.47;;;;;;;;;;5053083;28;20021;-73
2021/10/13 01:43:37;;;;;;;883.95;515.85;;;;;;;;;;5033653;28;20119;-73
2021/10/13 01:46:03;;;;;;;880.10;506.83;;;;;;;;;;5039091;28;20031;-73
2021/10/13 01:48:32;;;;;;;879.75;493.02;;;;;;;;;;5040551;28;20048;-73
2021/10/13 01:50:58;;;;;;;873.75;481.73;;;;;;;;;;5051126;28;20057;-74
2021/10/13 01:53:25;;;;;;;881.63;511.98;;;;;;;;;;5048321;28;20641;-73
2021/10/13 01:55:52;;;;;;;884.75;520.42;;;;;;;;;;5054641;28;20446;-73
2021/10/13 01:58:19;;;;;;;883.35;517.00;;;;;;;;;;5034221;28;20029;-74
2021/10/13 02:00:47;;;;;;;887.45;526.58;;;;;;;;;;5053506;28;20031;-73
2021/10/13 02:03:13;;;;;;;891.30;532.30;;;;;;;;;;5065321;28;20103;-73
2021/10/13 02:05:40;;;;;;;877.25;503.50;;;;;;;;;;5031567;28;20035;-73
2021/10/13 02:08:07;;;;;;;886.55;531.65;;;;;;;;;;5043960;28;20028;-74
2021/10/13 02:10:34;;;;;;;885.03;530.42;;;;;;;;;;5059689;28;20040;-73
2021/10/13 02:13:01;;;;;;;882.85;523.42;;;;;;;;;;5063152;28;20496;-73
2021/10/13 02:15:28;;;;;;;893.53;563.25;;;;;;;;;;5040102;28;20089;-74
2021/10/13 02:17:56;;;;;;;890.70;552.10;;;;;;;;;;5053757;28;20053;-72
2021/10/13 02:20:22;;;;;;;902.08;595.15;;;;;;;;;;5045956;28;20736;-74
2021/10/13 02:22:49;;;;;;;893.55;575.53;;;;;;;;;;5029133;28;20436;-72
2021/10/13 02:25:16;;;;;;;888.17;562.08;;;;;;;;;;5059115;28;20083;-73
2021/10/13 02:28:00;;;;;;;891.17;568.90;;;;;;;;;;5056370;28;20514;-73
2021/10/13 02:30:26;;;;;;;888.70;558.65;;;;;;;;;;5046644;28;20033;-73
2021/10/13 02:32:51;;;;;;;892.00;575.20;;;;;;;;;;5054573;28;20037;-73
2021/10/13 02:35:20;;;;;;;891.45;576.25;;;;;;;;;;5049112;28;20110;-73
2021/10/13 02:37:46;;;;;;;891.72;577.83;;;;;;;;;;5052289;28;20028;-74
2021/10/13 02:40:12;;;;;;;886.10;557.88;;;;;;;;;;5033838;28;20029;-73
2021/10/13 02:42:39;;;;;;;892.25;573.17;;;;;;;;;;5057300;28;20443;-73
2021/10/13 02:45:06;;;;;;;890.10;572.25;;;;;;;;;;5054711;28;20040;-73
2021/10/13 02:47:42;;;;;;;883.90;545.58;;;;;;;;;;5056340;28;20074;-73
2021/10/13 02:50:26;;;;;;;888.67;562.22;;;;;;;;;;5056999;28;20025;-73
2021/10/13 02:52:52;;;;;;;892.47;577.83;;;;;;;;;;5037384;28;20122;-73
2021/10/13 02:55:19;;;;;;;889.92;567.80;;;;;;;;;;5056666;28;20032;-74
2021/10/13 02:58:08;;;;;;;894.53;582.78;;;;;;;;;;5055599;28;20028;-73
2021/10/13 03:00:35;;;;;;;893.10;578.83;;;;;;;;;;5028095;28;20094;-73
2021/10/13 03:03:08;;;;;;;885.67;547.30;;;;;;;;;;5059050;28;20433;-73
2021/10/13 03:05:36;;;;;;;887.30;551.45;;;;;;;;;;5060693;28;20036;-73
2021/10/13 03:08:02;;;;;;;901.25;605.40;;;;;;;;;;5052584;28;20040;-73
2021/10/13 03:10:29;;;;;;;892.03;576.22;;;;;;;;;;5058697;28;20068;-73
2021/10/13 03:12:57;;;;;;;899.00;601.35;;;;;;;;;;5070778;28;20043;-73
2021/10/13 03:15:25;;;;;;;901.75;612.53;;;;;;;;;;5068872;28;20020;-73
2021/10/13 03:17:52;;;;;;;897.33;591.63;;;;;;;;;;5059724;28;20033;-72
2021/10/13 03:20:19;;;;;;;893.97;582.42;;;;;;;;;;5063123;28;20025;-73
2021/10/13 03:22:46;;;;;;;892.42;582.00;;;;;;;;;;5032268;28;20429;-73
2021/10/13 03:25:12;;;;;;;900.78;597.88;;;;;;;;;;5054589;28;20057;-73
2021/10/13 03:27:38;;;;;;;899.25;601.88;;;;;;;;;;5054172;28;20085;-74
2021/10/13 03:30:05;;;;;;;905.83;620.97;;;;;;;;;;5063150;28;20082;-74
2021/10/13 03:32:31;;;;;;;895.25;596.55;;;;;;;;;;5042028;28;20778;-73
2021/10/13 03:34:57;;;;;;;909.40;635.58;;;;;;;;;;5058064;28;20029;-73
2021/10/13 03:37:23;;;;;;;904.45;625.08;;;;;;;;;;5063508;28;20056;-74
2021/10/13 03:39:50;;;;;;;902.72;619.70;;;;;;;;;;5055755;28;20039;-73
2021/10/13 03:42:15;;;;;;;903.60;618.75;;;;;;;;;;5040772;28;20028;-74
2021/10/13 03:44:42;;;;;;;901.15;609.50;;;;;;;;;;5034755;28;20029;-73
2021/10/13 03:47:08;;;;;;;899.88;609.60;;;;;;;;;;5052924;28;20040;-73
2021/10/13 03:49:35;;;;;;;902.35;609.92;;;;;;;;;;5039973;28;20024;-72
2021/10/13 03:52:01;;;;;;;901.40;609.83;;;;;;;;;;5070254;28;20039;-73
2021/10/13 03:54:27;;;;;;;889.10;567.40;;;;;;;;;;5058002;28;20029;-73
2021/10/13 03:56:54;;;;;;;901.03;601.67;;;;;;;;;;5060745;28;20028;-73
2021/10/13 03:59:20;;;;;;;893.42;582.42;;;;;;;;;;5059282;28;20527;-73
2021/10/13 04:01:46;;;;;;;890.58;573.80;;;;;;;;;;5039131;28;20060;-74
2021/10/13 04:04:12;;;;;;;894.42;579.75;;;;;;;;;;5051818;28;20803;-74
2021/10/13 04:06:38;;;;;;;899.25;591.67;;;;;;;;;;5051282;28;20667;-74
2021/10/13 04:09:05;;;;;;;894.00;580.55;;;;;;;;;;5047418;28;20033;-74
2021/10/13 04:11:31;;;;;;;891.83;568.08;;;;;;;;;;5043081;28;20033;-73
2021/10/13 04:13:57;;;;;;;893.03;570.72;;;;;;;;;;5040424;28;20040;-73
2021/10/13 04:16:23;;;;;;;893.58;579.15;;;;;;;;;;5057844;28;20096;-74
2021/10/13 04:18:49;;;;;;;894.72;575.10;;;;;;;;;;5051594;28;20074;-74
2021/10/13 04:21:15;;;;;;;889.97;561.47;;;;;;;;;;5058294;28;20101;-73
2021/10/13 04:23:41;;;;;;;896.65;580.53;;;;;;;;;;5069077;28;20387;-73
2021/10/13 04:26:07;;;;;;;891.80;566.83;;;;;;;;;;5064132;28;20033;-74
2021/10/13 04:28:33;;;;;;;905.05;597.90;;;;;;;;;;5057104;28;20025;-74
2021/10/13 04:30:59;;;;;;;899.97;588.80;;;;;;;;;;5060225;28;20441;-73
2021/10/13 04:33:25;;;;;;;890.58;554.70;;;;;;;;;;5039350;28;20090;-73
2021/10/13 04:35:51;;;;;;;897.70;578.90;;;;;;;;;;5039543;28;20029;-73
2021/10/13 04:38:16;;;;;;;892.38;562.78;;;;;;;;;;5056561;28;20025;-74
2021/10/13 04:40:42;;;;;;;886.05;544.20;;;;;;;;;;5062948;28;20115;-73
2021/10/13 04:43:08;;;;;;;894.88;564.83;;;;;;;;;;5060259;28;20033;-74
2021/10/13 04:45:34;;;;;;;887.67;539.67;;;;;;;;;;5061711;28;20036;-73
2021/10/13 04:48:00;;;;;;;886.28;541.00;;;;;;;;;;5035468;28;20036;-73
2021/10/13 04:50:26;;;;;;;887.10;538.60;;;;;;;;;;5040170;28;20032;-73
2021/10/13 04:52:52;;;;;;;883.88;530.28;;;;;;;;;;5055101;28;20112;-73
2021/10/13 04:55:18;;;;;;;877.55;512.13;;;;;;;;;;5035865;28;20090;-74
2021/10/13 04:57:44;;;;;;;875.53;506.23;;;;;;;;;;5060868;28;20476;-74
2021/10/13 05:00:10;;;;;;;876.85;505.08;;;;;;;;;;5050545;28;20074;-74
2021/10/13 05:02:36;;;;;;;886.92;489.80;;;;;;;;;;5032116;28;20033;-73
2021/10/13 05:05:02;;;;;;;873.35;494.95;;;;;;;;;;5040377;28;20036;-73
2021/10/13 05:07:28;;;;;;;879.65;509.33;;;;;;;;;;5054973;28;20025;-73
2021/10/13 05:09:54;;;;;;;881.22;514.90;;;;;;;;;;5046787;28;20060;-73
2021/10/13 05:12:20;;;;;;;881.80;507.85;;;;;;;;;;5051514;28;20510;-74
2021/10/13 05:14:46;;;;;;;880.67;513.80;;;;;;;;;;5036106;28;20378;-73
2021/10/13 05:17:12;;;;;;;880.67;511.38;;;;;;;;;;5063949;28;20672;-74
2021/10/13 05:19:38;;;;;;;881.90;521.75;;;;;;;;;;5063856;28;20645;-74
2021/10/13 05:22:04;;;;;;;878.88;503.08;;;;;;;;;;5056178;28;20056;-73
2021/10/13 05:24:30;;;;;;;870.00;480.23;;;;;;;;;;5050326;28;20024;-73
2021/10/13 05:26:56;;;;;;;872.78;487.23;;;;;;;;;;5059060;28;20040;-73
2021/10/13 05:29:22;;;;;;;882.10;513.25;;;;;;;;;;5040511;28;20131;-74
2021/10/13 05:31:48;;;;;;;875.45;496.63;;;;;;;;;;5035008;28;20154;-73
2021/10/13 05:34:14;;;;;;;875.88;497.80;;;;;;;;;;5058175;28;20041;-73
2021/10/13 05:36:40;;;;;;;881.85;517.45;;;;;;;;;;5040596;28;20029;-74
2021/10/13 05:39:06;;;;;;;879.17;515.33;;;;;;;;;;5031965;28;20119;-73
2021/10/13 05:41:33;;;;;;;878.10;505.77;;;;;;;;;;5047149;28;20647;-73
2021/10/13 05:43:59;;;;;;;884.90;533.97;;;;;;;;;;5056476;28;20403;-74
2021/10/13 05:46:25;;;;;;;898.25;578.17;;;;;;;;;;5058908;28;20033;-73
2021/10/13 05:48:51;;;;;;;885.55;542.55;;;;;;;;;;5031568;28;20196;-74
2021/10/13 05:51:17;;;;;;;894.88;569.17;;;;;;;;;;5057664;28;20029;-74
2021/10/13 05:53:43;;;;;;;898.88;583.55;;;;;;;;;;5047926;28;20024;-73
2021/10/13 05:56:09;;;;;;;901.97;594.45;;;;;;;;;;5056654;28;20021;-74
2021/10/13 05:58:35;;;;;;;900.63;593.85;;;;;;;;;;5065118;28;20031;-73
2021/10/13 06:01:01;;;;;;;897.67;582.05;;;;;;;;;;5039157;28;20237;-74
2021/10/13 06:03:27;;;;;;;897.70;580.97;;;;;;;;;;5049971;28;20078;-74
2021/10/13 06:05:53;;;;;;;897.22;587.97;;;;;;;;;;5056032;28;20103;-74
2021/10/13 06:08:20;;;;;;;881.60;520.50;;;;;;;;;;5053042;28;20041;-73
2021/10/13 06:10:46;;;;;;;905.55;605.80;;;;;;;;;;5055599;28;20087;-73
2021/10/13 06:13:12;;;;;;;899.03;593.20;;;;;;;;;;5051564;28;20041;-74
2021/10/13 06:15:38;;;;;;;900.50;598.00;;;;;;;;;;5051122;28;20539;-74
2021/10/13 06:18:05;;;;;;;895.75;575.03;;;;;;;;;;5037109;28;20085;-73
2021/10/13 06:20:31;;;;;;;889.47;558.72;;;;;;;;;;5060203;28;20050;-74
2021/10/13 06:22:57;;;;;;;892.38;567.78;;;;;;;;;;5039973;28;20033;-74
2021/10/13 06:25:23;;;;;;;896.33;581.78;;;;;;;;;;5051905;28;20048;-74
2021/10/13 06:27:51;;;;;;;887.17;559.45;;;;;;;;;;5052673;28;20039;-73
2021/10/13 06:30:17;;;;;;;894.38;581.03;;;;;;;;;;5059111;28;20102;-74
2021/10/13 06:32:43;;;;;;;892.10;567.33;;;;;;;;;;5056212;28;20721;-73
2021/10/13 06:35:10;;;;;;;895.40;589.05;;;;;;;;;;5053406;28;20033;-73
2021/10/13 06:37:36;;;;;;;893.97;582.85;;;;;;;;;;5058900;28;20549;-74
2021/10/13 06:40:01;;;;;;;888.67;561.53;;;;;;;;;;5052393;28;20032;-74
2021/10/13 06:42:27;;;;;;;896.35;593.95;;;;;;;;;;5056141;28;20033;-73
2021/10/13 06:44:53;;;;;;;896.65;598.30;;;;;;;;;;5058449;28;20033;-74
2021/10/13 06:47:19;;;;;;;895.20;599.08;;;;;;;;;;5058750;28;20060;-73
2021/10/13 06:49:45;;;;;;;895.88;602.92;;;;;;;;;;5056790;28;20032;-75
2021/10/13 06:52:12;;;;;;;890.17;574.53;;;;;;;;;;5036255;28;20059;-73
2021/10/13 06:54:38;;;;;;;902.13;609.22;;;;;;;;;;5055208;28;20032;-74
2021/10/13 06:57:05;;;;;;;893.88;589.42;;;;;;;;;;5052600;28;20028;-74
2021/10/13 06:59:31;;;;;;;899.08;602.03;;;;;;;;;;5036918;28;20413;-74
2021/10/13 07:01:57;;;;;;;904.97;624.83;;;;;;;;;;5041703;28;20522;-74
2021/10/13 07:04:22;;;;;;;894.42;594.75;;;;;;;;;;5062221;28;20484;-74
2021/10/13 07:06:48;;;;;;;896.20;603.55;;;;;;;;;;5054048;28;20071;-74
2021/10/13 07:09:15;;;;;;;893.55;590.85;;;;;;;;;;5052176;28;20036;-73
2021/10/13 07:11:41;;;;;;;891.47;581.67;;;;;;;;;;5053044;28;20021;-73
2021/10/13 07:14:09;;;;;;;896.13;603.35;;;;;;;;;;5060574;28;20116;-74
2021/10/13 07:16:35;;;;;;;892.15;594.88;;;;;;;;;;5054604;28;20100;-73
2021/10/13 07:19:01;;;;;;;897.13;617.97;;;;;;;;;;5056029;28;20167;-73
2021/10/13 07:21:27;;;;;;;910.13;666.95;;;;;;;;;;5051469;28;20480;-73
2021/10/13 07:23:53;;;;;;;915.22;686.30;;;;;;;;;;5048184;28;20075;-73
2021/10/13 07:26:19;;;;;;;919.17;703.50;;;;;;;;;;5037282;28;20644;-73
2021/10/13 07:28:45;;;;;;;918.25;692.90;;;;;;;;;;5038286;28;20028;-73
2021/10/13 07:31:12;;;;;;;925.33;732.85;;;;;;;;;;5038412;28;20079;-72
2021/10/13 07:33:39;;;;;;;928.30;742.78;;;;;;;;;;5057070;28;20029;-72
2021/10/13 07:36:06;;;;;;;912.35;697.90;;;;;;;;;;5039468;28;20072;-74
2021/10/13 07:38:32;;;;;;;907.45;683.33;;;;;;;;;;5068436;28;20059;-73
2021/10/13 07:40:58;;;;;;;902.72;659.58;;;;;;;;;;5053332;28;20675;-74
2021/10/13 07:43:28;;;;;;;904.28;658.00;;;;;;;;;;5041920;28;20058;-73
2021/10/13 07:45:54;;;;;;;902.22;652.92;;;;;;;;;;5038027;28;20082;-74
2021/10/13 07:48:20;;;;;;;912.85;684.83;;;;;;;;;;5058957;28;20123;-75
2021/10/13 07:50:46;;;;;;;910.30;676.70;;;;;;;;;;5044514;28;20028;-73
2021/10/13 07:53:13;;;;;;;906.17;655.40;;;;;;;;;;5032951;28;20067;-73
2021/10/13 07:55:39;;;;;;;902.90;655.45;;;;;;;;;;5061428;28;20147;-74
2021/10/13 07:58:05;;;;;;;903.88;664.05;;;;;;;;;;5039031;28;20120;-74
2021/10/13 08:00:32;;;;;;;909.72;681.63;;;;;;;;;;5057431;28;20033;-74
2021/10/13 08:02:57;;;;;;;912.25;684.28;;;;;;;;;;5057143;28;20036;-74
2021/10/13 08:05:24;;;;;;;909.95;675.33;;;;;;;;;;5044790;28;20556;-74
2021/10/13 08:07:49;;;;;;;918.00;706.13;;;;;;;;;;5038709;28;20036;-74
2021/10/13 08:13:31;;;;;;;922.70;725.67;;;;;;;;;;5046648;22;20486;-73
2021/10/13 08:15:57;;;;;;;931.50;750.45;;;;;;;;;;5093159;28;20024;-73
2021/10/13 08:18:23;;;;;;;944.70;793.28;;;;;;;;;;5094293;28;20039;-74
2021/10/13 08:20:49;;;;;;;936.25;769.88;;;;;;;;;;5081378;28;20027;-73
2021/10/13 08:23:15;;;;;;;931.80;761.50;;;;;;;;;;5071973;28;20035;-73
2021/10/13 08:25:41;;;;;;;937.13;777.42;;;;;;;;;;5099593;28;20027;-73
2021/10/13 08:28:07;;;;;;;936.60;781.15;;;;;;;;;;5098374;28;20070;-73
2021/10/13 08:30:33;;;;;;;929.42;765.65;;;;;;;;;;5103544;28;20072;-74
2021/10/13 08:33:00;;;;;;;934.92;790.45;;;;;;;;;;5106601;28;20028;-74
2021/10/13 08:35:28;;;;;;;943.78;821.10;;;;;;;;;;5084030;28;20040;-73
2021/10/13 08:37:54;;;;;;;919.60;752.15;;;;;;;;;;5097497;28;20024;-73
2021/10/13 08:40:20;;;;;;;928.03;791.88;;;;;;;;;;5087391;28;20062;-73
2021/10/13 08:42:53;;;;;;;946.83;840.97;;;;;;;;;;5099970;28;20031;-73
2021/10/13 08:45:19;;;;;;;950.67;846.08;;;;;;;;;;5107036;28;20066;-73
2021/10/13 08:47:45;;;;;;;973.75;868.63;;;;;;;;;;5107696;28;20121;-72
2021/10/13 08:50:11;;;;;;;1019.72;912.55;;;;;;;;;;5109444;28;20102;-73
2021/10/13 08:52:37;;;;;;;1031.93;923.95;;;;;;;;;;5104481;28;20065;-73
2021/10/13 08:55:03;;;;;;;1032.53;925.42;;;;;;;;;;5088198;28;20113;-73
2021/10/13 08:57:30;;;;;;;1047.68;940.00;;;;;;;;;;5103203;28;20634;-74
2021/10/13 08:59:56;;;;;;;1077.15;967.60;;;;;;;;;;5098999;28;20023;-74
2021/10/13 09:02:39;;;;;;;1054.30;946.33;;;;;;;;;;5080654;28;20016;-74
2021/10/13 09:05:07;;;;;;;1077.95;967.97;;;;;;;;;;5084714;28;20368;-74
2021/10/13 09:07:34;;;;;;;1039.53;932.22;;;;;;;;;;5101212;28;20094;-73
2021/10/13 09:10:00;;;;;;;1060.68;951.80;;;;;;;;;;5102210;28;20020;-73
2021/10/13 09:12:29;;;;;;;1044.07;936.53;;;;;;;;;;5101642;28;20028;-73
2021/10/13 09:15:03;;;;;;;1051.13;942.97;;;;;;;;;;5100034;28;20514;-73
2021/10/13 09:17:29;;;;;;;1021.65;915.05;;;;;;;;;;5081090;28;20315;-73
2021/10/13 09:19:54;;;;;;;1011.25;904.83;;;;;;;;;;5099368;28;20399;-73
2021/10/13 09:22:21;;;;;;;979.05;873.95;;;;;;;;;;5097564;28;20020;-73
2021/10/13 09:24:48;;;;;;;977.67;871.97;;;;;;;;;;5078337;28;20424;-73
2021/10/13 09:27:31;;;;;;;1003.08;896.22;;;;;;;;;;5099858;27;20137;-73
2021/10/13 09:30:01;;;;;;;1004.35;896.95;;;;;;;;;;5083460;28;20130;-72
2021/10/13 09:32:28;;;;;;;1007.55;899.88;;;;;;;;;;5101449;28;20368;-73
2021/10/13 09:34:54;;;;;;;966.83;861.47;;;;;;;;;;5079746;28;20678;-73
2021/10/13 09:37:21;;;;;;;1013.60;905.83;;;;;;;;;;5079947;28;20028;-73
2021/10/13 09:39:57;;;;;;;1020.85;913.15;;;;;;;;;;5096167;28;20360;-74
2021/10/13 09:42:23;;;;;;;1015.63;907.40;;;;;;;;;;5095943;28;20505;-74
2021/10/13 09:44:54;;;;;;;988.83;882.13;;;;;;;;;;5094206;28;20047;-74
2021/10/13 09:47:19;;;;;;;992.58;885.65;;;;;;;;;;5076534;28;20043;-74
2021/10/13 09:49:49;;;;;;;992.88;886.05;;;;;;;;;;5094335;28;20023;-74
2021/10/13 09:52:16;;;;;;;961.00;855.80;;;;;;;;;;5094284;28;20327;-74
2021/10/13 09:54:44;;;;;;;1001.28;893.75;;;;;;;;;;5090536;28;20050;-74
2021/10/13 09:57:17;;;;;;;972.55;866.45;;;;;;;;;;5095199;28;20032;-74
2021/10/13 09:59:59;;;;;;;977.80;871.53;;;;;;;;;;5096067;28;20020;-73
2021/10/13 10:02:30;;;;;;;989.17;882.42;;;;;;;;;;5097782;28;20138;-73
2021/10/13 10:04:57;;;;;;;985.95;879.55;;;;;;;;;;5079498;28;20048;-73
2021/10/13 10:07:23;;;;;;;991.45;884.28;;;;;;;;;;5096846;28;20060;-74
2021/10/13 10:10:08;;;;;;;996.65;889.35;;;;;;;;;;5079797;28;20028;-74
2021/10/13 10:12:52;;;;;;;1000.17;892.83;;;;;;;;;;5092420;28;20039;-74
2021/10/13 10:15:30;;;;;;;990.10;883.20;;;;;;;;;;5094651;28;20148;-74
2021/10/13 10:17:56;;;;;;;985.60;878.83;;;;;;;;;;5095160;28;20467;-73
2021/10/13 10:20:39;;;;;;;969.38;863.58;;;;;;;;;;5098940;28;20023;-74
2021/10/13 10:23:25;;;;;;;983.40;876.92;;;;;;;;;;5101618;28;20027;-74
2021/10/13 10:25:51;;;;;;;980.05;873.60;;;;;;;;;;5099310;28;20084;-74
2021/10/13 10:28:36;;;;;;;1013.03;904.95;;;;;;;;;;5099730;28;20032;-74
2021/10/13 10:31:20;;;;;;;977.63;871.15;;;;;;;;;;5098902;28;20123;-74
2021/10/13 10:33:51;;;;;;;992.08;884.85;;;;;;;;;;5081886;28;20035;-74
2021/10/13 10:36:17;;;;;;;1008.80;900.90;;;;;;;;;;5082774;28;20032;-75
2021/10/13 10:38:47;;;;;;;1017.03;909.33;;;;;;;;;;5102820;28;20085;-73
2021/10/13 10:41:13;;;;;;;1027.40;919.38;;;;;;;;;;5082589;28;20024;-74
2021/10/13 10:43:39;;;;;;;1050.07;940.97;;;;;;;;;;5078123;28;20412;-74
2021/10/13 10:46:05;;;;;;;1036.30;927.70;;;;;;;;;;5095528;28;20474;-73
2021/10/13 10:48:47;;;;;;;1036.32;927.78;;;;;;;;;;5100104;28;20447;-73
2021/10/13 10:51:14;;;;;;;1018.60;911.13;;;;;;;;;;5099329;28;20244;-74
2021/10/13 10:53:44;;;;;;;1037.88;928.95;;;;;;;;;;5091072;28;20471;-74
2021/10/13 10:56:10;;;;;;;1018.78;911.25;;;;;;;;;;5093705;28;20038;-74
2021/10/13 10:58:36;;;;;;;967.60;862.63;;;;;;;;;;5076312;28;20032;-73
2021/10/13 11:01:07;;;;;;;1043.28;934.38;;;;;;;;;;5095132;28;20420;-74
2021/10/13 11:03:38;;;;;;;1010.83;903.90;;;;;;;;;;5094982;28;20023;-74
2021/10/13 11:06:03;;;;;;;;;;;;;;;;;;5095260;28;20032;-73
2021/10/13 11:08:29;;;;;;;1011.17;903.25;;;;;;;;;;5074448;28;19909;-74
2021/10/13 11:10:55;;;;;;;1021.35;913.58;;;;;;;;;;5095067;28;20031;-74
2021/10/13 11:13:24;;;;;;;1015.97;908.92;;;;;;;;;;5093916;28;20048;-74
2021/10/13 11:15:50;;;;;;;1039.40;930.83;;;;;;;;;;5095743;28;20127;-74
2021/10/13 11:18:17;;;;;;;1028.38;920.78;;;;;;;;;;5079980;28;20534;-74
2021/10/13 11:20:44;;;;;;;1062.10;952.78;;;;;;;;;;5072131;28;20474;-74
2021/10/13 11:23:13;;;;;;;1041.18;933.72;;;;;;;;;;5095427;28;20031;-73
2021/10/13 11:25:40;;;;;;;1029.95;922.25;;;;;;;;;;5078665;28;20031;-74
2021/10/13 11:28:14;;;;;;;1010.92;904.33;;;;;;;;;;5098070;28;20318;-73
2021/10/13 11:30:42;;;;;;;1046.93;938.35;;;;;;;;;;5083485;28;20615;-73
2021/10/13 11:33:09;;;;;;;1012.08;905.83;;;;;;;;;;5080267;28;20024;-74
2021/10/13 11:35:35;;;;;;;1053.15;944.60;;;;;;;;;;5078870;28;20024;-74
2021/10/13 11:38:01;;;;;;;1031.07;923.75;;;;;;;;;;5078217;28;20093;-73
2021/10/13 11:40:27;;;;;;;1040.25;932.63;;;;;;;;;;5079111;28;20028;-74
2021/10/13 11:42:58;;;;;;;1071.45;961.50;;;;;;;;;;5097072;28;20080;-74
2021/10/13 11:45:24;;;;;;;;;;;;;;;;;;5097903;28;20055;-74
2021/10/13 11:47:50;;;;;;;1013.95;906.35;;;;;;;;;;5097959;28;19966;-74
2021/10/13 11:50:17;;;;;;;1015.78;909.08;;;;;;;;;;5097356;28;20028;-73
2021/10/13 11:52:44;;;;;;;1002.60;896.13;;;;;;;;;;5092541;28;20278;-74
2021/10/13 11:55:11;;;;;;;1040.80;932.22;;;;;;;;;;5097099;28;20101;-73
2021/10/13 11:57:38;;;;;;;1032.85;924.80;;;;;;;;;;5097301;28;20429;-73
2021/10/13 12:00:13;;;;;;;1016.17;908.55;;;;;;;;;;5097854;28;20063;-74
2021/10/13 12:02:39;;;;;;;1029.35;921.17;;;;;;;;;;5096757;28;20441;-74
2021/10/13 12:05:07;;;;;;;1050.38;940.75;;;;;;;;;;5094500;28;20059;-74
2021/10/13 12:07:45;;;;;;;1038.60;929.92;;;;;;;;;;5096759;28;20019;-74
2021/10/13 12:10:12;;;;;;;1028.70;920.58;;;;;;;;;;5096038;28;20106;-74
2021/10/13 12:12:38;;;;;;;1042.18;933.30;;;;;;;;;;5095798;28;20043;-75
2021/10/13 12:15:18;;;;;;;1056.60;946.63;;;;;;;;;;5077494;28;20979;-74
2021/10/13 12:17:44;;;;;;;1018.45;911.28;;;;;;;;;;5096825;28;20016;-74
2021/10/13 12:20:16;;;;;;;1055.85;946.42;;;;;;;;;;5078421;28;20036;-73
2021/10/13 12:22:46;;;;;;;1042.47;933.35;;;;;;;;;;5094298;28;20434;-73
2021/10/13 12:25:22;;;;;;;1018.38;910.95;;;;;;;;;;5096593;28;20024;-74
2021/10/13 12:27:48;;;;;;;1025.57;917.60;;;;;;;;;;5096472;28;20487;-74
2021/10/13 12:30:27;;;;;;;1022.42;914.97;;;;;;;;;;5096788;28;20077;-74
2021/10/13 12:33:03;;;;;;;1018.30;911.42;;;;;;;;;;5095214;28;20487;-73
2021/10/13 12:35:30;;;;;;;1031.72;923.47;;;;;;;;;;5095816;28;20471;-74
2021/10/13 12:37:56;;;;;;;1044.13;935.58;;;;;;;;;;5094986;28;20031;-74
2021/10/13 12:40:22;;;;;;;1054.60;945.50;;;;;;;;;;5096984;28;20034;-74
2021/10/13 12:42:48;;;;;;;1049.07;940.67;;;;;;;;;;5096496;28;20028;-74
2021/10/13 12:45:14;;;;;;;1059.38;950.58;;;;;;;;;;5097196;28;20023;-74
2021/10/13 12:47:40;;;;;;;1091.88;980.83;;;;;;;;;;5100110;28;20077;-74
2021/10/13 12:50:12;;;;;;;1075.55;965.97;;;;;;;;;;5072145;28;20027;-73
2021/10/13 12:52:38;;;;;;;1066.25;956.70;;;;;;;;;;5094206;28;20470;-73
2021/10/13 12:55:04;;;;;;;1065.65;955.80;;;;;;;;;;5096024;28;20062;-74
2021/10/13 12:57:31;;;;;;;1072.32;962.00;;;;;;;;;;5097609;28;20475;-73
2021/10/13 12:59:58;;;;;;;1057.45;948.05;;;;;;;;;;5100238;28;20029;-72
2021/10/13 13:02:24;;;;;;;1059.95;950.28;;;;;;;;;;5083622;28;20068;-75
2021/10/13 13:04:50;;;;;;;1047.57;938.88;;;;;;;;;;5078531;28;20036;-74
2021/10/13 13:07:16;;;;;;;1069.25;958.83;;;;;;;;;;5097702;28;20028;-73
2021/10/13 13:09:45;;;;;;;1069.15;958.30;;;;;;;;;;5096537;28;20497;-73
2021/10/13 13:12:11;;;;;;;1047.57;938.33;;;;;;;;;;5098636;28;20056;-73
2021/10/13 13:14:37;;;;;;;1057.70;947.55;;;;;;;;;;5080979;28;20023;-73
2021/10/13 13:17:07;;;;;;;1015.45;907.58;;;;;;;;;;5100326;28;20051;-73
2021/10/13 13:19:33;;;;;;;1054.28;944.08;;;;;;;;;;5103313;28;20591;-73
2021/10/13 13:21:59;;;;;;;1028.75;919.83;;;;;;;;;;5103526;28;20102;-73
2021/10/13 13:24:25;;;;;;;1007.30;899.53;;;;;;;;;;5099946;28;20123;-73
2021/10/13 13:26:51;;;;;;;1024.00;915.15;;;;;;;;;;5099871;28;20069;-73
2021/10/13 13:29:18;;;;;;;1022.50;913.60;;;;;;;;;;5104792;28;20041;-73
2021/10/13 13:31:44;;;;;;;1037.55;927.97;;;;;;;;;;5103868;28;21749;-73
2021/10/13 13:34:10;;;;;;;1034.03;924.97;;;;;;;;;;5103574;28;20076;-73
2021/10/13 13:36:36;;;;;;;1045.95;936.30;;;;;;;;;;5103257;28;20032;-73
2021/10/13 13:39:03;;;;;;;1055.32;945.15;;;;;;;;;;5085402;28;20052;-73
2021/10/13 13:41:29;;;;;;;1052.45;942.38;;;;;;;;;;5103496;28;20100;-73
2021/10/13 13:43:55;;;;;;;1048.55;938.92;;;;;;;;;;5104345;27;20032;-74
2021/10/13 13:46:21;;;;;;;1060.05;949.83;;;;;;;;;;5096377;28;20229;-73
2021/10/13 13:48:47;;;;;;;1041.15;932.20;;;;;;;;;;5094156;28;20123;-74
2021/10/13 13:51:14;;;;;;;1070.20;959.33;;;;;;;;;;5100953;28;20671;-73
2021/10/13 13:53:40;;;;;;;1025.85;918.10;;;;;;;;;;5083731;28;20032;-73
2021/10/13 13:56:07;;;;;;;1079.43;968.17;;;;;;;;;;5097715;28;20286;-74